Jenks, Oklahoma
Current Conditions -  °F | °C
As of 8:53 PM on Wednesday 22 Oct 2014 (Local Time) from KRVS Reporting Station
Clear Clear  
Wind Chill: 69°   Ceiling: Unl
Heat Index: 69°   Visibility: 10mi
Dew Point: 58°   Wind: 7mph
Humidity: 68%   Direction: 160°SSE
Pressure: 30.11"   Gusts: NA
Location:  36.02°N, 95.97°W
Report Text: KRVS 230153Z 16006KT 10SM CLR 21/14 A3011 RMK AO2 SLP202 T02060144
Loading
Personal Weather Stations






























Interactive Weather Map
Tropical Storm Tracking
New forecast layout! Learn more

10-Day Weather Forecast

Advertisements
Track Severe Weather on mobile